Main page
METAR-TAF:

METAR-TAF

Airports :

Sharjah International Airport

Sharjah, United Arab Emirates

latitude: 25-20N, longitude: 055-31E, elevation: 35 m

Current weather observation

The report was made 13 minutes ago, at 19:00 UTC
Wind 7 kt from the West/Southwest
Temperature 20°C
Humidity 56%
Pressure 1017 hPa
Visibility 10 km or more
Scattered clouds at a height of 3500 ft

METAR: OMSJ 181900Z 24007KT 9999 SCT035 20/11 Q1017

Time: 23:13 (19:13 UTC)

Forecast

The report was made 2 hours and 10 minutes ago, at 17:03 UTC
Forecast valid from 18 at 18 UTC to 20 at 00 UTC
Wind 12 kt from the West
Visibility 10 km or more
no clouds below 1500 m and no cumulonimbus
Becoming
from 18 at 18 UTC to 18 at 20 UTC
Wind 5 kt from the Southwest
Becoming
from 19 at 04 UTC to 19 at 06 UTC
Wind 17 kt from the West
Probability 30%
from 19 at 08 UTC to 19 at 13 UTC
Visibility: 4000 m
Blowing dust

TAF: OMSJ 181703Z 1818/2000 28012KT CAVOK BECMG 1818/1820 22005KT BECMG 1904/1906 28017KT PROB30 1908/1913 4000 BLDU

Weather observations and forecasts of more than 4000 airports (METAR and TAF reports).

The available stations are represented by yellow and red dots on the map.

Hover mouse over dot to see the name of the station.

Then click to see weather observations and forecasts.

To change the map : click on the green buttons with a black cross to zoom in, on the green button with a dash to zoom out, or on the green arrows for adjacent maps.


METAR-TAF: